sensor_id;sensor_type;location;lat;lon;timestamp;temperature;humidity
41722;DHT22;27407;24.142;-110.310;2023-07-13T00:01:32;41.50;99.90
41722;DHT22;27407;24.142;-110.310;2023-07-13T00:03:58;41.30;99.90
41722;DHT22;27407;24.142;-110.310;2023-07-13T00:06:25;41.40;99.90
41722;DHT22;27407;24.142;-110.310;2023-07-13T00:08:59;41.40;99.90
41722;DHT22;27407;24.142;-110.310;2023-07-13T00:11:26;41.20;99.90
41722;DHT22;27407;24.142;-110.310;2023-07-13T00:13:53;40.80;99.90
41722;DHT22;27407;24.142;-110.310;2023-07-13T00:16:19;41.10;99.90
41722;DHT22;27407;24.142;-110.310;2023-07-13T00:18:47;41.00;99.90
41722;DHT22;27407;24.142;-110.310;2023-07-13T00:21:13;41.00;99.90
41722;DHT22;27407;24.142;-110.310;2023-07-13T00:23:42;41.40;99.90
41722;DHT22;27407;24.142;-110.310;2023-07-13T00:26:10;41.20;99.90
41722;DHT22;27407;24.142;-110.310;2023-07-13T00:28:39;40.80;99.90
41722;DHT22;27407;24.142;-110.310;2023-07-13T00:31:05;40.40;99.90
41722;DHT22;27407;24.142;-110.310;2023-07-13T00:33:32;40.40;99.90
41722;DHT22;27407;24.142;-110.310;2023-07-13T00:35:59;40.20;99.90
41722;DHT22;27407;24.142;-110.310;2023-07-13T00:38:25;39.90;99.90
41722;DHT22;27407;24.142;-110.310;2023-07-13T00:40:52;39.70;99.90
41722;DHT22;27407;24.142;-110.310;2023-07-13T00:43:25;40.10;99.90
41722;DHT22;27407;24.142;-110.310;2023-07-13T00:48:25;39.70;99.90
41722;DHT22;27407;24.142;-110.310;2023-07-13T00:50:58;39.70;99.90
41722;DHT22;27407;24.142;-110.310;2023-07-13T00:53:27;39.50;99.90
41722;DHT22;27407;24.142;-110.310;2023-07-13T00:55:55;39.50;99.90
41722;DHT22;27407;24.142;-110.310;2023-07-13T00:58:26;39.70;99.90
41722;DHT22;27407;24.142;-110.310;2023-07-13T01:00:54;39.80;99.90
41722;DHT22;27407;24.142;-110.310;2023-07-13T01:03:20;39.50;99.90
41722;DHT22;27407;24.142;-110.310;2023-07-13T01:05:50;39.40;99.90
41722;DHT22;27407;24.142;-110.310;2023-07-13T01:08:21;39.10;99.90
41722;DHT22;27407;24.142;-110.310;2023-07-13T01:10:58;38.60;99.90
41722;DHT22;27407;24.142;-110.310;2023-07-13T01:13:24;38.50;99.90
41722;DHT22;27407;24.142;-110.310;2023-07-13T01:15:52;38.50;99.90
41722;DHT22;27407;24.142;-110.310;2023-07-13T01:18:22;38.40;99.90
41722;DHT22;27407;24.142;-110.310;2023-07-13T01:21:01;38.10;99.90
41722;DHT22;27407;24.142;-110.310;2023-07-13T01:23:30;38.00;99.90
41722;DHT22;27407;24.142;-110.310;2023-07-13T01:25:58;38.00;99.90
41722;DHT22;27407;24.142;-110.310;2023-07-13T01:28:26;37.90;99.90
41722;DHT22;27407;24.142;-110.310;2023-07-13T01:30:54;37.40;99.90
41722;DHT22;27407;24.142;-110.310;2023-07-13T01:33:21;37.10;99.90
41722;DHT22;27407;24.142;-110.310;2023-07-13T01:35:48;36.80;99.90
41722;DHT22;27407;24.142;-110.310;2023-07-13T01:38:17;36.60;99.90
41722;DHT22;27407;24.142;-110.310;2023-07-13T01:40:44;36.40;99.90
41722;DHT22;27407;24.142;-110.310;2023-07-13T01:43:11;36.00;99.90
41722;DHT22;27407;24.142;-110.310;2023-07-13T01:45:38;35.70;99.90
41722;DHT22;27407;24.142;-110.310;2023-07-13T01:48:04;35.50;99.90
41722;DHT22;27407;24.142;-110.310;2023-07-13T01:50:33;35.30;99.90
41722;DHT22;27407;24.142;-110.310;2023-07-13T01:53:00;35.20;99.90
41722;DHT22;27407;24.142;-110.310;2023-07-13T01:55:28;34.90;99.90
41722;DHT22;27407;24.142;-110.310;2023-07-13T01:57:55;34.70;99.90
41722;DHT22;27407;24.142;-110.310;2023-07-13T02:00:22;34.60;99.90
41722;DHT22;27407;24.142;-110.310;2023-07-13T02:02:50;34.40;99.90
41722;DHT22;27407;24.142;-110.310;2023-07-13T02:05:18;34.20;99.90
41722;DHT22;27407;24.142;-110.310;2023-07-13T02:07:45;34.20;99.90
41722;DHT22;27407;24.142;-110.310;2023-07-13T02:10:12;34.30;99.90
41722;DHT22;27407;24.142;-110.310;2023-07-13T02:12:39;34.10;99.90
41722;DHT22;27407;24.142;-110.310;2023-07-13T02:15:07;33.90;99.90
41722;DHT22;27407;24.142;-110.310;2023-07-13T02:17:35;33.80;99.90
41722;DHT22;27407;24.142;-110.310;2023-07-13T02:20:03;33.70;99.90
41722;DHT22;27407;24.142;-110.310;2023-07-13T02:22:30;33.60;99.90
41722;DHT22;27407;24.142;-110.310;2023-07-13T02:24:57;33.40;99.90
41722;DHT22;27407;24.142;-110.310;2023-07-13T02:27:24;33.50;99.90
41722;DHT22;27407;24.142;-110.310;2023-07-13T02:29:50;33.60;99.90
41722;DHT22;27407;24.142;-110.310;2023-07-13T02:32:18;33.60;99.90
41722;DHT22;27407;24.142;-110.310;2023-07-13T02:34:44;33.30;99.90
41722;DHT22;27407;24.142;-110.310;2023-07-13T02:37:13;33.30;99.90
41722;DHT22;27407;24.142;-110.310;2023-07-13T02:39:40;33.30;99.90
41722;DHT22;27407;24.142;-110.310;2023-07-13T02:42:07;33.20;99.90
41722;DHT22;27407;24.142;-110.310;2023-07-13T02:44:33;33.20;99.90
41722;DHT22;27407;24.142;-110.310;2023-07-13T02:47:00;33.10;99.90
41722;DHT22;27407;24.142;-110.310;2023-07-13T02:49:27;33.00;99.90
41722;DHT22;27407;24.142;-110.310;2023-07-13T02:51:53;33.00;99.90
41722;DHT22;27407;24.142;-110.310;2023-07-13T02:54:20;32.80;99.90
41722;DHT22;27407;24.142;-110.310;2023-07-13T02:56:47;32.80;99.90
41722;DHT22;27407;24.142;-110.310;2023-07-13T02:59:13;32.70;99.90
41722;DHT22;27407;24.142;-110.310;2023-07-13T03:01:40;32.80;99.90
41722;DHT22;27407;24.142;-110.310;2023-07-13T03:04:07;32.60;99.90
41722;DHT22;27407;24.142;-110.310;2023-07-13T03:06:33;32.40;99.90
41722;DHT22;27407;24.142;-110.310;2023-07-13T03:09:00;32.50;99.90
41722;DHT22;27407;24.142;-110.310;2023-07-13T03:11:27;32.60;99.90
41722;DHT22;27407;24.142;-110.310;2023-07-13T03:13:54;32.40;99.90
41722;DHT22;27407;24.142;-110.310;2023-07-13T03:16:21;32.30;99.90
41722;DHT22;27407;24.142;-110.310;2023-07-13T03:18:48;32.30;99.90
41722;DHT22;27407;24.142;-110.310;2023-07-13T03:21:16;32.30;99.90
41722;DHT22;27407;24.142;-110.310;2023-07-13T03:23:43;32.20;99.90
41722;DHT22;27407;24.142;-110.310;2023-07-13T03:26:12;32.10;99.90
41722;DHT22;27407;24.142;-110.310;2023-07-13T03:28:40;32.20;99.90
41722;DHT22;27407;24.142;-110.310;2023-07-13T03:31:09;32.20;99.90
41722;DHT22;27407;24.142;-110.310;2023-07-13T03:33:37;32.00;99.90
41722;DHT22;27407;24.142;-110.310;2023-07-13T03:36:05;32.10;99.90
41722;DHT22;27407;24.142;-110.310;2023-07-13T03:38:32;32.00;99.90
41722;DHT22;27407;24.142;-110.310;2023-07-13T03:40:59;32.00;99.90
41722;DHT22;27407;24.142;-110.310;2023-07-13T03:43:26;31.90;99.90
41722;DHT22;27407;24.142;-110.310;2023-07-13T03:45:53;31.80;99.90
41722;DHT22;27407;24.142;-110.310;2023-07-13T03:48:19;31.80;99.90
41722;DHT22;27407;24.142;-110.310;2023-07-13T03:50:47;31.60;99.90
41722;DHT22;27407;24.142;-110.310;2023-07-13T03:53:15;31.60;99.90
41722;DHT22;27407;24.142;-110.310;2023-07-13T03:55:42;31.70;99.90
41722;DHT22;27407;24.142;-110.310;2023-07-13T04:00:59;31.50;99.90
41722;DHT22;27407;24.142;-110.310;2023-07-13T04:03:29;31.60;99.90
41722;DHT22;27407;24.142;-110.310;2023-07-13T04:06:00;31.40;99.90
41722;DHT22;27407;24.142;-110.310;2023-07-13T04:08:31;31.70;99.90
41722;DHT22;27407;24.142;-110.310;2023-07-13T04:10:59;31.30;99.90
41722;DHT22;27407;24.142;-110.310;2023-07-13T04:13:27;31.30;99.90
41722;DHT22;27407;24.142;-110.310;2023-07-13T04:15:54;31.20;99.90
41722;DHT22;27407;24.142;-110.310;2023-07-13T04:18:21;31.10;99.90
41722;DHT22;27407;24.142;-110.310;2023-07-13T04:20:49;31.10;99.90
41722;DHT22;27407;24.142;-110.310;2023-07-13T04:23:17;31.10;99.90
41722;DHT22;27407;24.142;-110.310;2023-07-13T04:25:47;31.10;99.90
41722;DHT22;27407;24.142;-110.310;2023-07-13T04:28:16;31.10;99.90
41722;DHT22;27407;24.142;-110.310;2023-07-13T04:30:44;31.20;99.90
41722;DHT22;27407;24.142;-110.310;2023-07-13T04:33:11;31.10;99.90
41722;DHT22;27407;24.142;-110.310;2023-07-13T04:35:38;31.10;99.90
41722;DHT22;27407;24.142;-110.310;2023-07-13T04:38:04;31.10;99.90
41722;DHT22;27407;24.142;-110.310;2023-07-13T04:40:31;31.00;99.90
41722;DHT22;27407;24.142;-110.310;2023-07-13T04:42:59;31.00;99.90
41722;DHT22;27407;24.142;-110.310;2023-07-13T04:45:26;31.10;99.90
41722;DHT22;27407;24.142;-110.310;2023-07-13T04:47:53;31.20;99.90
41722;DHT22;27407;24.142;-110.310;2023-07-13T04:50:20;31.00;99.90
41722;DHT22;27407;24.142;-110.310;2023-07-13T04:52:51;30.90;99.90
41722;DHT22;27407;24.142;-110.310;2023-07-13T04:55:19;30.70;99.90
41722;DHT22;27407;24.142;-110.310;2023-07-13T04:57:47;30.80;99.90
41722;DHT22;27407;24.142;-110.310;2023-07-13T05:00:14;30.80;99.90
41722;DHT22;27407;24.142;-110.310;2023-07-13T05:02:45;30.70;99.90
41722;DHT22;27407;24.142;-110.310;2023-07-13T05:05:12;30.70;99.90
41722;DHT22;27407;24.142;-110.310;2023-07-13T05:07:39;30.80;99.90
41722;DHT22;27407;24.142;-110.310;2023-07-13T05:10:06;30.80;99.90
41722;DHT22;27407;24.142;-110.310;2023-07-13T05:12:33;30.70;99.90
41722;DHT22;27407;24.142;-110.310;2023-07-13T05:14:59;30.70;99.90
41722;DHT22;27407;24.142;-110.310;2023-07-13T05:17:26;30.60;99.90
41722;DHT22;27407;24.142;-110.310;2023-07-13T05:19:53;30.50;99.90
41722;DHT22;27407;24.142;-110.310;2023-07-13T05:22:19;30.40;99.90
41722;DHT22;27407;24.142;-110.310;2023-07-13T05:24:46;30.40;99.90
41722;DHT22;27407;24.142;-110.310;2023-07-13T05:27:12;30.50;99.90
41722;DHT22;27407;24.142;-110.310;2023-07-13T05:29:39;30.30;99.90
41722;DHT22;27407;24.142;-110.310;2023-07-13T05:32:06;30.30;99.90
41722;DHT22;27407;24.142;-110.310;2023-07-13T05:34:33;30.40;99.90
41722;DHT22;27407;24.142;-110.310;2023-07-13T05:37:00;30.40;99.90
41722;DHT22;27407;24.142;-110.310;2023-07-13T05:39:26;30.50;99.90
41722;DHT22;27407;24.142;-110.310;2023-07-13T05:41:53;30.50;99.90
41722;DHT22;27407;24.142;-110.310;2023-07-13T05:44:20;30.50;99.90
41722;DHT22;27407;24.142;-110.310;2023-07-13T05:46:48;30.40;99.90
41722;DHT22;27407;24.142;-110.310;2023-07-13T05:49:15;30.50;99.90
41722;DHT22;27407;24.142;-110.310;2023-07-13T05:51:41;30.40;99.90
41722;DHT22;27407;24.142;-110.310;2023-07-13T05:54:08;30.40;99.90
41722;DHT22;27407;24.142;-110.310;2023-07-13T05:56:34;30.30;99.90
41722;DHT22;27407;24.142;-110.310;2023-07-13T05:59:01;30.30;99.90
41722;DHT22;27407;24.142;-110.310;2023-07-13T06:01:29;30.30;99.90
41722;DHT22;27407;24.142;-110.310;2023-07-13T06:03:55;30.10;99.90
41722;DHT22;27407;24.142;-110.310;2023-07-13T06:06:22;30.10;99.90
41722;DHT22;27407;24.142;-110.310;2023-07-13T06:08:49;30.00;99.90
41722;DHT22;27407;24.142;-110.310;2023-07-13T06:11:17;30.00;99.90
41722;DHT22;27407;24.142;-110.310;2023-07-13T06:13:45;29.80;99.90
41722;DHT22;27407;24.142;-110.310;2023-07-13T06:16:12;29.90;99.90
41722;DHT22;27407;24.142;-110.310;2023-07-13T06:18:40;29.80;99.90
41722;DHT22;27407;24.142;-110.310;2023-07-13T06:21:18;29.80;99.90
41722;DHT22;27407;24.142;-110.310;2023-07-13T06:23:47;30.00;99.90
41722;DHT22;27407;24.142;-110.310;2023-07-13T06:26:18;30.00;99.90
41722;DHT22;27407;24.142;-110.310;2023-07-13T06:28:45;29.80;99.90
41722;DHT22;27407;24.142;-110.310;2023-07-13T06:31:12;29.80;99.90
41722;DHT22;27407;24.142;-110.310;2023-07-13T06:33:47;29.80;99.90
41722;DHT22;27407;24.142;-110.310;2023-07-13T06:36:20;29.80;99.90
41722;DHT22;27407;24.142;-110.310;2023-07-13T06:38:47;29.90;99.90
41722;DHT22;27407;24.142;-110.310;2023-07-13T06:41:13;29.70;99.90
41722;DHT22;27407;24.142;-110.310;2023-07-13T06:43:40;29.60;99.90
41722;DHT22;27407;24.142;-110.310;2023-07-13T06:46:07;29.50;99.90
41722;DHT22;27407;24.142;-110.310;2023-07-13T06:48:34;29.60;99.90
41722;DHT22;27407;24.142;-110.310;2023-07-13T06:51:02;29.60;99.90
41722;DHT22;27407;24.142;-110.310;2023-07-13T06:53:29;29.60;99.90
41722;DHT22;27407;24.142;-110.310;2023-07-13T06:55:56;29.60;99.90
41722;DHT22;27407;24.142;-110.310;2023-07-13T06:58:23;29.60;99.90
41722;DHT22;27407;24.142;-110.310;2023-07-13T07:00:51;29.50;99.90
41722;DHT22;27407;24.142;-110.310;2023-07-13T07:03:18;29.60;99.90
41722;DHT22;27407;24.142;-110.310;2023-07-13T07:05:45;29.50;99.90
41722;DHT22;27407;24.142;-110.310;2023-07-13T07:08:12;29.40;99.90
41722;DHT22;27407;24.142;-110.310;2023-07-13T07:10:39;29.40;99.90
41722;DHT22;27407;24.142;-110.310;2023-07-13T07:13:06;29.40;99.90
41722;DHT22;27407;24.142;-110.310;2023-07-13T07:15:33;29.40;99.90
41722;DHT22;27407;24.142;-110.310;2023-07-13T07:18:00;29.40;99.90
41722;DHT22;27407;24.142;-110.310;2023-07-13T07:20:27;29.30;99.90
41722;DHT22;27407;24.142;-110.310;2023-07-13T07:22:53;29.30;99.90
41722;DHT22;27407;24.142;-110.310;2023-07-13T07:25:20;29.20;99.90
41722;DHT22;27407;24.142;-110.310;2023-07-13T07:27:47;29.20;99.90
41722;DHT22;27407;24.142;-110.310;2023-07-13T07:30:13;29.20;99.90
41722;DHT22;27407;24.142;-110.310;2023-07-13T07:32:41;29.20;99.90
41722;DHT22;27407;24.142;-110.310;2023-07-13T07:35:08;29.20;99.90
41722;DHT22;27407;24.142;-110.310;2023-07-13T07:37:34;29.20;99.90
41722;DHT22;27407;24.142;-110.310;2023-07-13T07:40:01;29.10;99.90
41722;DHT22;27407;24.142;-110.310;2023-07-13T07:42:28;29.10;99.90
41722;DHT22;27407;24.142;-110.310;2023-07-13T07:44:55;29.20;99.90
41722;DHT22;27407;24.142;-110.310;2023-07-13T07:47:22;29.10;99.90
41722;DHT22;27407;24.142;-110.310;2023-07-13T07:49:50;29.00;99.90
41722;DHT22;27407;24.142;-110.310;2023-07-13T07:52:16;29.00;99.90
41722;DHT22;27407;24.142;-110.310;2023-07-13T07:54:43;28.90;99.90
41722;DHT22;27407;24.142;-110.310;2023-07-13T07:57:09;28.90;99.90
41722;DHT22;27407;24.142;-110.310;2023-07-13T07:59:37;29.00;99.90
41722;DHT22;27407;24.142;-110.310;2023-07-13T08:02:04;29.00;99.90
41722;DHT22;27407;24.142;-110.310;2023-07-13T08:04:31;28.80;99.90
41722;DHT22;27407;24.142;-110.310;2023-07-13T08:06:58;28.90;99.90
41722;DHT22;27407;24.142;-110.310;2023-07-13T08:09:24;28.80;99.90
41722;DHT22;27407;24.142;-110.310;2023-07-13T08:11:51;28.90;99.90
41722;DHT22;27407;24.142;-110.310;2023-07-13T08:14:18;28.80;99.90
41722;DHT22;27407;24.142;-110.310;2023-07-13T08:16:45;28.70;99.90
41722;DHT22;27407;24.142;-110.310;2023-07-13T08:19:12;28.90;99.90
41722;DHT22;27407;24.142;-110.310;2023-07-13T08:21:38;28.70;99.90
41722;DHT22;27407;24.142;-110.310;2023-07-13T08:24:05;28.70;99.90
41722;DHT22;27407;24.142;-110.310;2023-07-13T08:26:32;28.70;99.90
41722;DHT22;27407;24.142;-110.310;2023-07-13T08:28:59;28.70;99.90
41722;DHT22;27407;24.142;-110.310;2023-07-13T08:31:25;28.60;99.90
41722;DHT22;27407;24.142;-110.310;2023-07-13T08:33:52;28.70;99.90
41722;DHT22;27407;24.142;-110.310;2023-07-13T08:36:18;28.60;99.90
41722;DHT22;27407;24.142;-110.310;2023-07-13T08:38:45;28.70;99.90
41722;DHT22;27407;24.142;-110.310;2023-07-13T08:41:17;28.60;99.90
41722;DHT22;27407;24.142;-110.310;2023-07-13T08:43:51;28.60;99.90
41722;DHT22;27407;24.142;-110.310;2023-07-13T08:46:39;28.60;99.90
41722;DHT22;27407;24.142;-110.310;2023-07-13T08:49:15;28.70;99.90
41722;DHT22;27407;24.142;-110.310;2023-07-13T08:51:53;28.60;99.90
41722;DHT22;27407;24.142;-110.310;2023-07-13T08:54:28;28.70;99.90
41722;DHT22;27407;24.142;-110.310;2023-07-13T08:56:56;28.70;99.90
41722;DHT22;27407;24.142;-110.310;2023-07-13T08:59:26;28.70;99.90
41722;DHT22;27407;24.142;-110.310;2023-07-13T09:05:15;28.60;99.90
41722;DHT22;27407;24.142;-110.310;2023-07-13T09:08:02;28.50;99.90
41722;DHT22;27407;24.142;-110.310;2023-07-13T09:10:37;28.50;99.90
41722;DHT22;27407;24.142;-110.310;2023-07-13T09:14:00;28.40;99.90
41722;DHT22;27407;24.142;-110.310;2023-07-13T09:16:33;28.50;99.90
41722;DHT22;27407;24.142;-110.310;2023-07-13T09:19:05;28.50;99.90
41722;DHT22;27407;24.142;-110.310;2023-07-13T09:21:37;28.50;99.90
41722;DHT22;27407;24.142;-110.310;2023-07-13T09:24:28;28.50;99.90
41722;DHT22;27407;24.142;-110.310;2023-07-13T09:26:57;28.50;99.90
41722;DHT22;27407;24.142;-110.310;2023-07-13T09:29:33;28.40;99.90
41722;DHT22;27407;24.142;-110.310;2023-07-13T09:32:07;28.40;99.90
41722;DHT22;27407;24.142;-110.310;2023-07-13T09:34:35;28.40;99.90
41722;DHT22;27407;24.142;-110.310;2023-07-13T09:37:02;28.30;99.90
41722;DHT22;27407;24.142;-110.310;2023-07-13T09:39:39;28.30;99.90
41722;DHT22;27407;24.142;-110.310;2023-07-13T09:42:18;28.40;99.90
41722;DHT22;27407;24.142;-110.310;2023-07-13T09:44:52;28.40;99.90
41722;DHT22;27407;24.142;-110.310;2023-07-13T09:47:22;28.30;99.90
41722;DHT22;27407;24.142;-110.310;2023-07-13T09:49:56;28.40;99.90
41722;DHT22;27407;24.142;-110.310;2023-07-13T09:52:25;28.20;99.90
41722;DHT22;27407;24.142;-110.310;2023-07-13T09:54:54;28.20;99.90
41722;DHT22;27407;24.142;-110.310;2023-07-13T09:57:27;28.30;99.90
41722;DHT22;27407;24.142;-110.310;2023-07-13T09:59:55;28.20;99.90
41722;DHT22;27407;24.142;-110.310;2023-07-13T10:02:31;28.20;99.90
41722;DHT22;27407;24.142;-110.310;2023-07-13T10:05:03;28.30;99.90
41722;DHT22;27407;24.142;-110.310;2023-07-13T10:07:32;28.20;99.90
41722;DHT22;27407;24.142;-110.310;2023-07-13T10:10:00;28.20;99.90
41722;DHT22;27407;24.142;-110.310;2023-07-13T10:12:28;28.20;99.90
41722;DHT22;27407;24.142;-110.310;2023-07-13T10:14:58;28.10;99.90
41722;DHT22;27407;24.142;-110.310;2023-07-13T10:17:32;28.10;99.90
41722;DHT22;27407;24.142;-110.310;2023-07-13T10:20:04;28.20;99.90
41722;DHT22;27407;24.142;-110.310;2023-07-13T10:25:22;28.10;99.90
41722;DHT22;27407;24.142;-110.310;2023-07-13T10:30:59;28.10;99.90
41722;DHT22;27407;24.142;-110.310;2023-07-13T10:33:27;28.00;99.90
41722;DHT22;27407;24.142;-110.310;2023-07-13T10:36:01;28.10;99.90
41722;DHT22;27407;24.142;-110.310;2023-07-13T10:38:30;28.00;99.90
41722;DHT22;27407;24.142;-110.310;2023-07-13T10:40:58;28.00;99.90
41722;DHT22;27407;24.142;-110.310;2023-07-13T10:43:35;27.90;99.90
41722;DHT22;27407;24.142;-110.310;2023-07-13T10:46:08;28.00;99.90
41722;DHT22;27407;24.142;-110.310;2023-07-13T10:48:36;28.10;99.90
41722;DHT22;27407;24.142;-110.310;2023-07-13T10:51:05;28.00;99.90
41722;DHT22;27407;24.142;-110.310;2023-07-13T10:53:37;27.90;99.90
41722;DHT22;27407;24.142;-110.310;2023-07-13T10:56:28;28.00;99.90
41722;DHT22;27407;24.142;-110.310;2023-07-13T10:59:25;28.00;99.90
41722;DHT22;27407;24.142;-110.310;2023-07-13T11:04:28;28.00;99.90
41722;DHT22;27407;24.142;-110.310;2023-07-13T11:07:00;28.00;99.90
41722;DHT22;27407;24.142;-110.310;2023-07-13T11:09:39;28.00;99.90
41722;DHT22;27407;24.142;-110.310;2023-07-13T11:17:36;28.10;99.90
41722;DHT22;27407;24.142;-110.310;2023-07-13T11:22:47;28.10;99.90
41722;DHT22;27407;24.142;-110.310;2023-07-13T11:25:29;28.10;99.90
41722;DHT22;27407;24.142;-110.310;2023-07-13T11:30:39;28.10;99.90
41722;DHT22;27407;24.142;-110.310;2023-07-13T11:33:20;28.00;99.90
41722;DHT22;27407;24.142;-110.310;2023-07-13T11:36:31;28.20;99.90
41722;DHT22;27407;24.142;-110.310;2023-07-13T11:42:05;28.00;99.90
41722;DHT22;27407;24.142;-110.310;2023-07-13T11:44:34;28.10;99.90
41722;DHT22;27407;24.142;-110.310;2023-07-13T11:47:09;28.10;99.90
41722;DHT22;27407;24.142;-110.310;2023-07-13T11:49:48;28.00;99.90
41722;DHT22;27407;24.142;-110.310;2023-07-13T11:52:21;28.00;99.90
41722;DHT22;27407;24.142;-110.310;2023-07-13T11:54:54;28.10;99.90
41722;DHT22;27407;24.142;-110.310;2023-07-13T11:59:55;28.00;99.90
41722;DHT22;27407;24.142;-110.310;2023-07-13T12:02:46;28.10;99.90
41722;DHT22;27407;24.142;-110.310;2023-07-13T12:05:16;28.10;99.90
41722;DHT22;27407;24.142;-110.310;2023-07-13T12:07:50;27.90;99.90
41722;DHT22;27407;24.142;-110.310;2023-07-13T12:13:00;27.90;99.90
41722;DHT22;27407;24.142;-110.310;2023-07-13T12:15:39;27.90;99.90
41722;DHT22;27407;24.142;-110.310;2023-07-13T12:18:20;27.80;99.90
41722;DHT22;27407;24.142;-110.310;2023-07-13T12:20:48;27.80;99.90
41722;DHT22;27407;24.142;-110.310;2023-07-13T12:23:30;27.80;99.90
41722;DHT22;27407;24.142;-110.310;2023-07-13T12:25:59;27.70;99.90
41722;DHT22;27407;24.142;-110.310;2023-07-13T12:28:59;27.60;99.90
41722;DHT22;27407;24.142;-110.310;2023-07-13T12:31:30;27.60;99.90
41722;DHT22;27407;24.142;-110.310;2023-07-13T12:36:25;27.50;99.90
41722;DHT22;27407;24.142;-110.310;2023-07-13T12:38:52;27.50;99.90
41722;DHT22;27407;24.142;-110.310;2023-07-13T12:41:18;27.60;99.90
41722;DHT22;27407;24.142;-110.310;2023-07-13T12:43:46;27.50;99.90
41722;DHT22;27407;24.142;-110.310;2023-07-13T12:46:19;27.60;99.90
41722;DHT22;27407;24.142;-110.310;2023-07-13T12:48:50;27.60;99.90
41722;DHT22;27407;24.142;-110.310;2023-07-13T12:51:20;27.60;99.90
41722;DHT22;27407;24.142;-110.310;2023-07-13T12:53:57;27.80;99.90
41722;DHT22;27407;24.142;-110.310;2023-07-13T12:56:26;27.80;99.90
41722;DHT22;27407;24.142;-110.310;2023-07-13T12:58:58;27.70;99.90
41722;DHT22;27407;24.142;-110.310;2023-07-13T13:01:28;27.90;99.90
41722;DHT22;27407;24.142;-110.310;2023-07-13T13:03:56;28.00;99.90
41722;DHT22;27407;24.142;-110.310;2023-07-13T13:06:28;27.80;99.90
41722;DHT22;27407;24.142;-110.310;2023-07-13T13:08:57;27.80;99.90
41722;DHT22;27407;24.142;-110.310;2023-07-13T13:11:25;27.90;99.90
41722;DHT22;27407;24.142;-110.310;2023-07-13T13:13:53;28.00;99.90
41722;DHT22;27407;24.142;-110.310;2023-07-13T13:16:29;28.00;99.90
41722;DHT22;27407;24.142;-110.310;2023-07-13T13:19:14;27.90;99.90
41722;DHT22;27407;24.142;-110.310;2023-07-13T13:21:43;28.00;99.90
41722;DHT22;27407;24.142;-110.310;2023-07-13T13:24:18;28.00;99.90
41722;DHT22;27407;24.142;-110.310;2023-07-13T13:26:47;28.10;99.90
41722;DHT22;27407;24.142;-110.310;2023-07-13T13:29:20;28.10;99.90
41722;DHT22;27407;24.142;-110.310;2023-07-13T13:31:47;28.20;99.90
41722;DHT22;27407;24.142;-110.310;2023-07-13T13:34:17;28.20;99.90
41722;DHT22;27407;24.142;-110.310;2023-07-13T13:36:45;28.40;99.90
41722;DHT22;27407;24.142;-110.310;2023-07-13T13:39:22;28.30;99.90
41722;DHT22;27407;24.142;-110.310;2023-07-13T13:41:51;28.40;99.90
41722;DHT22;27407;24.142;-110.310;2023-07-13T13:44:19;28.30;99.90
41722;DHT22;27407;24.142;-110.310;2023-07-13T13:46:49;28.50;99.90
41722;DHT22;27407;24.142;-110.310;2023-07-13T13:49:19;28.40;99.90
41722;DHT22;27407;24.142;-110.310;2023-07-13T13:51:47;28.50;99.90
41722;DHT22;27407;24.142;-110.310;2023-07-13T13:54:15;28.80;99.90
41722;DHT22;27407;24.142;-110.310;2023-07-13T13:56:43;28.80;99.90
41722;DHT22;27407;24.142;-110.310;2023-07-13T13:59:11;28.90;99.90
41722;DHT22;27407;24.142;-110.310;2023-07-13T14:01:38;28.90;99.90
41722;DHT22;27407;24.142;-110.310;2023-07-13T14:04:05;28.90;99.90
41722;DHT22;27407;24.142;-110.310;2023-07-13T14:06:33;29.10;99.90
41722;DHT22;27407;24.142;-110.310;2023-07-13T14:09:01;29.30;99.90
41722;DHT22;27407;24.142;-110.310;2023-07-13T14:11:30;29.30;99.90
41722;DHT22;27407;24.142;-110.310;2023-07-13T14:14:12;29.40;99.90
41722;DHT22;27407;24.142;-110.310;2023-07-13T14:16:47;29.40;99.90
41722;DHT22;27407;24.142;-110.310;2023-07-13T14:19:19;29.50;99.90
41722;DHT22;27407;24.142;-110.310;2023-07-13T14:21:46;29.60;99.90
41722;DHT22;27407;24.142;-110.310;2023-07-13T14:24:19;29.80;99.90
41722;DHT22;27407;24.142;-110.310;2023-07-13T14:26:52;29.90;99.90
41722;DHT22;27407;24.142;-110.310;2023-07-13T14:29:26;30.00;99.90
41722;DHT22;27407;24.142;-110.310;2023-07-13T14:31:52;30.00;99.90
41722;DHT22;27407;24.142;-110.310;2023-07-13T14:34:22;30.00;99.90
41722;DHT22;27407;24.142;-110.310;2023-07-13T14:36:49;30.20;99.90
41722;DHT22;27407;24.142;-110.310;2023-07-13T14:39:24;30.10;99.90
41722;DHT22;27407;24.142;-110.310;2023-07-13T14:41:53;30.20;99.90
41722;DHT22;27407;24.142;-110.310;2023-07-13T14:44:28;30.30;99.90
41722;DHT22;27407;24.142;-110.310;2023-07-13T14:46:57;30.40;99.90
41722;DHT22;27407;24.142;-110.310;2023-07-13T14:49:31;30.50;99.90
41722;DHT22;27407;24.142;-110.310;2023-07-13T14:52:05;30.50;99.90
41722;DHT22;27407;24.142;-110.310;2023-07-13T14:54:32;30.70;99.90
41722;DHT22;27407;24.142;-110.310;2023-07-13T14:56:59;30.70;99.90
41722;DHT22;27407;24.142;-110.310;2023-07-13T14:59:27;30.80;99.90
41722;DHT22;27407;24.142;-110.310;2023-07-13T15:01:57;31.00;99.90
41722;DHT22;27407;24.142;-110.310;2023-07-13T15:04:23;30.90;99.90
41722;DHT22;27407;24.142;-110.310;2023-07-13T15:07:01;31.10;99.90
41722;DHT22;27407;24.142;-110.310;2023-07-13T15:09:31;31.30;99.90
41722;DHT22;27407;24.142;-110.310;2023-07-13T15:11:59;31.40;99.90
41722;DHT22;27407;24.142;-110.310;2023-07-13T15:14:38;31.40;99.90
41722;DHT22;27407;24.142;-110.310;2023-07-13T15:17:37;31.40;99.90
41722;DHT22;27407;24.142;-110.310;2023-07-13T15:22:51;31.50;99.90
41722;DHT22;27407;24.142;-110.310;2023-07-13T15:25:24;31.80;99.90
41722;DHT22;27407;24.142;-110.310;2023-07-13T15:27:52;32.00;99.90
41722;DHT22;27407;24.142;-110.310;2023-07-13T15:30:19;32.10;99.90
41722;DHT22;27407;24.142;-110.310;2023-07-13T15:32:46;32.10;99.90
41722;DHT22;27407;24.142;-110.310;2023-07-13T15:35:15;32.40;99.90
41722;DHT22;27407;24.142;-110.310;2023-07-13T15:37:43;32.70;99.90
41722;DHT22;27407;24.142;-110.310;2023-07-13T15:40:11;32.70;99.90
41722;DHT22;27407;24.142;-110.310;2023-07-13T15:42:43;32.80;99.90
41722;DHT22;27407;24.142;-110.310;2023-07-13T15:45:22;32.80;99.90